createdAt,value
2018-01-03T00:00:02.028Z,4.91
2018-01-03T00:00:06.069Z,4.86
2018-01-03T00:00:10.094Z,4.9
2018-01-03T00:00:14.102Z,4.93
2018-01-03T00:00:17.936Z,4.94
2018-01-03T00:00:21.740Z,4.99
2018-01-03T00:00:25.521Z,4.91
2018-01-03T00:00:29.324Z,4.91
2018-01-03T00:00:33.239Z,4.91
2018-01-03T00:00:37.142Z,4.87
2018-01-03T00:00:40.848Z,4.93
2018-01-03T00:00:44.648Z,4.91
2018-01-03T00:00:48.461Z,4.91
2018-01-03T00:00:52.377Z,4.96
2018-01-03T00:00:56.394Z,4.86
2018-01-03T00:01:00.305Z,5.01
2018-01-03T00:01:04.485Z,4.91
2018-01-03T00:01:08.488Z,4.93
2018-01-03T00:01:12.392Z,4.88
2018-01-03T00:01:16.299Z,4.99
2018-01-03T00:01:20.303Z,4.99
2018-01-03T00:01:24.413Z,4.94
2018-01-03T00:01:28.324Z,4.9
2018-01-03T00:01:32.452Z,4.88
2018-01-03T00:01:36.365Z,4.91
2018-01-03T00:01:40.278Z,4.97
2018-01-03T00:01:44.076Z,4.94
2018-01-03T00:01:48.089Z,4.99
2018-01-03T00:01:51.903Z,4.88
2018-01-03T00:01:55.817Z,5.02
2018-01-03T00:01:59.732Z,4.97
2018-01-03T00:02:03.859Z,4.99
2018-01-03T00:02:07.768Z,4.93
2018-01-03T00:02:11.801Z,4.9
2018-01-03T00:02:15.916Z,4.87
2018-01-03T00:02:19.701Z,4.91
2018-01-03T00:02:23.722Z,4.94
2018-01-03T00:02:27.724Z,4.88
2018-01-03T00:02:31.739Z,4.96
2018-01-03T00:02:35.744Z,4.86
2018-01-03T00:02:39.864Z,4.9
2018-01-03T00:02:43.771Z,4.87
2018-01-03T00:02:47.685Z,4.87
2018-01-03T00:02:51.587Z,4.91
2018-01-03T00:02:55.290Z,4.9
2018-01-03T00:02:58.980Z,4.9
2018-01-03T00:03:02.786Z,4.9
2018-01-03T00:03:06.903Z,4.88
2018-01-03T00:03:10.821Z,4.86
2018-01-03T00:03:14.727Z,4.87
2018-01-03T00:03:18.863Z,4.94
2018-01-03T00:03:22.675Z,4.84
2018-01-03T00:03:26.895Z,4.96
2018-01-03T00:03:30.708Z,4.86
2018-01-03T00:03:34.627Z,4.88
2018-01-03T00:03:38.527Z,4.87
2018-01-03T00:03:42.538Z,4.9
2018-01-03T00:03:46.455Z,4.86
2018-01-03T00:03:50.278Z,4.93
2018-01-03T00:03:54.196Z,4.93
2018-01-03T00:03:58.011Z,4.94
2018-01-03T00:04:01.825Z,4.87
2018-01-03T00:04:05.735Z,4.9
2018-01-03T00:04:09.430Z,4.87
2018-01-03T00:04:13.331Z,4.93
2018-01-03T00:04:17.240Z,4.88
2018-01-03T00:04:21.158Z,4.88
2018-01-03T00:04:24.965Z,4.87
2018-01-03T00:04:28.884Z,4.94
2018-01-03T00:04:32.588Z,4.9
2018-01-03T00:04:36.601Z,4.88
2018-01-03T00:04:40.507Z,4.91
2018-01-03T00:04:44.426Z,4.9
2018-01-03T00:04:48.337Z,4.88
2018-01-03T00:04:52.261Z,4.91
2018-01-03T00:04:56.176Z,4.86
2018-01-03T00:04:59.995Z,4.84
2018-01-03T00:05:03.891Z,4.86
2018-01-03T00:05:07.789Z,4.88
2018-01-03T00:05:11.729Z,4.86
2018-01-03T00:05:15.541Z,4.84
2018-01-03T00:05:19.447Z,4.83
2018-01-03T00:05:23.551Z,4.84
2018-01-03T00:05:27.453Z,4.8
2018-01-03T00:05:31.358Z,4.96
2018-01-03T00:05:35.254Z,4.86
2018-01-03T00:05:39.154Z,4.84
2018-01-03T00:05:43.279Z,4.87
2018-01-03T00:05:47.191Z,4.91
2018-01-03T00:05:50.888Z,4.91
2018-01-03T00:05:54.806Z,4.84
2018-01-03T00:05:58.716Z,4.86
2018-01-03T00:06:02.637Z,4.87
2018-01-03T00:06:06.663Z,4.84
2018-01-03T00:06:10.575Z,4.87
2018-01-03T00:06:14.482Z,4.88
2018-01-03T00:06:18.297Z,4.86
2018-01-03T00:06:22.216Z,4.91
2018-01-03T00:06:26.229Z,4.87
2018-01-03T00:06:30.130Z,4.96
2018-01-03T00:06:34.038Z,4.9
2018-01-03T00:06:37.963Z,4.9
2018-01-03T00:06:42.085Z,4.94
2018-01-03T00:06:46.112Z,4.93
2018-01-03T00:06:49.805Z,4.87
2018-01-03T00:06:53.740Z,4.88
2018-01-03T00:06:57.655Z,4.86
2018-01-03T00:07:01.862Z,4.88
2018-01-03T00:07:05.879Z,4.86
2018-01-03T00:07:09.888Z,4.88
2018-01-03T00:07:13.786Z,4.87
2018-01-03T00:07:17.587Z,4.86
2018-01-03T00:07:21.502Z,4.91
2018-01-03T00:07:25.404Z,4.84
2018-01-03T00:07:29.315Z,4.86
2018-01-03T00:07:33.337Z,4.87
2018-01-03T00:07:37.458Z,4.88
2018-01-03T00:07:41.272Z,4.9
2018-01-03T00:07:45.400Z,4.84
2018-01-03T00:07:49.409Z,4.91
2018-01-03T00:07:53.411Z,4.87
2018-01-03T00:07:57.228Z,4.91
2018-01-03T00:08:01.484Z,4.87
2018-01-03T00:08:05.560Z,4.88
2018-01-03T00:08:09.590Z,4.93
2018-01-03T00:08:13.714Z,4.84
2018-01-03T00:08:17.637Z,4.9
2018-01-03T00:08:21.543Z,4.88
2018-01-03T00:08:25.238Z,4.86
2018-01-03T00:08:29.152Z,4.93
2018-01-03T00:08:33.157Z,4.86
2018-01-03T00:08:37.262Z,4.93
2018-01-03T00:08:41.270Z,4.9
2018-01-03T00:08:44.978Z,4.87
2018-01-03T00:08:48.773Z,4.88
2018-01-03T00:08:52.679Z,4.87
2018-01-03T00:08:56.706Z,4.86
2018-01-03T00:09:00.617Z,4.87
2018-01-03T00:09:04.517Z,4.88
2018-01-03T00:09:08.518Z,4.88
2018-01-03T00:09:12.535Z,4.88
2018-01-03T00:09:16.344Z,4.87
2018-01-03T00:09:20.159Z,4.87
2018-01-03T00:09:24.062Z,4.9
2018-01-03T00:09:27.760Z,4.91
2018-01-03T00:09:31.766Z,4.87
2018-01-03T00:09:35.483Z,4.87
2018-01-03T00:09:39.514Z,4.91
2018-01-03T00:09:43.309Z,4.91
2018-01-03T00:09:47.376Z,4.87
2018-01-03T00:09:51.026Z,4.88
2018-01-03T00:09:54.945Z,4.88
2018-01-03T00:09:58.752Z,4.83
2018-01-03T00:10:02.836Z,4.87
2018-01-03T00:10:07.060Z,4.93
2018-01-03T00:10:11.176Z,4.86
2018-01-03T00:10:15.080Z,4.88
2018-01-03T00:10:19.116Z,4.91
2018-01-03T00:10:23.143Z,4.9
2018-01-03T00:10:27.063Z,4.87
2018-01-03T00:10:30.981Z,4.86
2018-01-03T00:10:34.889Z,4.91
2018-01-03T00:10:38.811Z,4.87
2018-01-03T00:10:42.732Z,4.91
2018-01-03T00:10:46.538Z,4.93
2018-01-03T00:10:50.438Z,4.83
2018-01-03T00:10:54.470Z,4.86
2018-01-03T00:10:58.390Z,4.96
2018-01-03T00:11:02.671Z,4.87
2018-01-03T00:11:06.582Z,4.87
2018-01-03T00:11:10.813Z,4.86
2018-01-03T00:11:14.734Z,4.88
2018-01-03T00:11:18.542Z,4.88
2018-01-03T00:11:22.463Z,4.91
2018-01-03T00:11:26.478Z,4.88
2018-01-03T00:11:30.161Z,4.88
2018-01-03T00:11:34.168Z,4.87
2018-01-03T00:11:37.958Z,4.88
2018-01-03T00:11:41.752Z,4.91
2018-01-03T00:11:45.773Z,4.87
2018-01-03T00:11:49.665Z,4.84
2018-01-03T00:11:53.792Z,4.88
2018-01-03T00:11:57.703Z,4.88
2018-01-03T00:12:01.718Z,4.87
2018-01-03T00:12:05.689Z,4.86
2018-01-03T00:12:09.593Z,4.79
2018-01-03T00:12:13.601Z,4.87
2018-01-03T00:12:17.714Z,4.84
2018-01-03T00:12:21.733Z,4.86
2018-01-03T00:12:25.661Z,4.83
2018-01-03T00:12:29.563Z,4.91
2018-01-03T00:12:33.480Z,4.87
2018-01-03T00:12:37.489Z,4.91
2018-01-03T00:12:41.290Z,4.91
2018-01-03T00:12:45.407Z,4.91
2018-01-03T00:12:49.117Z,4.86
2018-01-03T00:12:53.238Z,4.8
2018-01-03T00:12:57.137Z,4.86
2018-01-03T00:13:00.955Z,4.91
2018-01-03T00:13:04.890Z,4.93
2018-01-03T00:13:08.686Z,4.87
2018-01-03T00:13:12.602Z,4.88
2018-01-03T00:13:16.624Z,4.88
2018-01-03T00:13:20.867Z,4.9
2018-01-03T00:13:24.875Z,4.88
2018-01-03T00:13:28.786Z,4.87
2018-01-03T00:13:32.694Z,4.86
2018-01-03T00:13:36.613Z,4.86
2018-01-03T00:13:40.525Z,4.91
2018-01-03T00:13:44.452Z,4.9
2018-01-03T00:13:48.368Z,4.88
2018-01-03T00:13:52.395Z,4.87
2018-01-03T00:13:56.200Z,4.86
2018-01-03T00:14:00.218Z,4.84
2018-01-03T00:14:04.523Z,4.88
2018-01-03T00:14:08.436Z,4.87
2018-01-03T00:14:12.257Z,4.91
2018-01-03T00:14:16.366Z,4.87
2018-01-03T00:14:20.384Z,4.97
2018-01-03T00:14:24.286Z,4.94
2018-01-03T00:14:28.189Z,4.84
2018-01-03T00:14:32.101Z,4.88
2018-01-03T00:14:36.108Z,4.86
2018-01-03T00:14:40.225Z,4.87
2018-01-03T00:14:44.131Z,4.8
2018-01-03T00:14:48.024Z,4.87
2018-01-03T00:14:52.040Z,4.91
2018-01-03T00:14:55.948Z,4.88
2018-01-03T00:14:59.758Z,4.84
2018-01-03T00:15:03.992Z,4.91
2018-01-03T00:15:07.901Z,4.9
2018-01-03T00:15:11.877Z,4.84
2018-01-03T00:15:15.598Z,4.87
2018-01-03T00:15:19.292Z,4.91
2018-01-03T00:15:23.093Z,4.87
2018-01-03T00:15:26.909Z,4.87
2018-01-03T00:15:30.828Z,4.91
2018-01-03T00:15:34.633Z,4.8
2018-01-03T00:15:38.547Z,4.87
2018-01-03T00:15:42.557Z,4.87
2018-01-03T00:15:46.463Z,4.88
2018-01-03T00:15:50.264Z,4.8
2018-01-03T00:15:54.285Z,4.87
2018-01-03T00:15:58.302Z,4.93
2018-01-03T00:16:02.310Z,4.86
2018-01-03T00:16:06.216Z,4.94
2018-01-03T00:16:10.141Z,4.94
2018-01-03T00:16:14.278Z,4.88
2018-01-03T00:16:18.078Z,4.88
2018-01-03T00:16:22.091Z,4.87
2018-01-03T00:16:25.998Z,4.94
2018-01-03T00:16:29.799Z,4.91
2018-01-03T00:16:33.708Z,4.88
2018-01-03T00:16:37.623Z,4.87
2018-01-03T00:16:41.722Z,4.93
2018-01-03T00:16:45.733Z,4.91
2018-01-03T00:16:49.560Z,4.88
2018-01-03T00:16:53.476Z,4.88
2018-01-03T00:16:57.607Z,4.86
2018-01-03T00:17:01.316Z,4.88
2018-01-03T00:17:05.405Z,4.86
2018-01-03T00:17:09.306Z,4.87
2018-01-03T00:17:13.320Z,4.87
2018-01-03T00:17:17.508Z,4.86
2018-01-03T00:17:21.508Z,4.93
2018-01-03T00:17:25.543Z,4.88
2018-01-03T00:17:29.463Z,4.86
2018-01-03T00:17:33.377Z,4.88
2018-01-03T00:17:37.186Z,4.88
2018-01-03T00:17:41.102Z,4.96
2018-01-03T00:17:45.125Z,4.88
2018-01-03T00:17:49.062Z,4.88
2018-01-03T00:17:53.085Z,4.87
2018-01-03T00:17:57.009Z,4.87
2018-01-03T00:18:00.921Z,4.86
2018-01-03T00:18:04.859Z,4.88
2018-01-03T00:18:08.859Z,4.91
2018-01-03T00:18:12.873Z,4.88
2018-01-03T00:18:16.692Z,4.94
2018-01-03T00:18:20.692Z,4.91
2018-01-03T00:18:24.695Z,4.88
2018-01-03T00:18:28.670Z,4.88
2018-01-03T00:18:32.571Z,4.94
2018-01-03T00:18:36.393Z,4.9
2018-01-03T00:18:40.217Z,4.9
2018-01-03T00:18:44.323Z,4.87
2018-01-03T00:18:48.252Z,4.84
2018-01-03T00:18:52.058Z,4.97
2018-01-03T00:18:55.974Z,4.96
2018-01-03T00:18:59.681Z,4.88
2018-01-03T00:19:04.061Z,4.93
2018-01-03T00:19:08.075Z,4.93
2018-01-03T00:19:11.874Z,4.91
2018-01-03T00:19:15.789Z,4.88
2018-01-03T00:19:20.013Z,4.9
2018-01-03T00:19:24.127Z,4.91
2018-01-03T00:19:27.925Z,4.8
2018-01-03T00:19:31.717Z,4.88
2018-01-03T00:19:35.740Z,4.93
2018-01-03T00:19:39.743Z,4.96
2018-01-03T00:19:43.750Z,4.9
2018-01-03T00:19:47.552Z,4.88
2018-01-03T00:19:51.245Z,4.88
2018-01-03T00:19:55.261Z,4.93
2018-01-03T00:19:59.268Z,4.87
2018-01-03T00:20:03.441Z,4.93
2018-01-03T00:20:07.584Z,4.84
2018-01-03T00:20:11.500Z,4.86
2018-01-03T00:20:15.321Z,4.87
2018-01-03T00:20:19.232Z,4.91
2018-01-03T00:20:22.931Z,4.91
2018-01-03T00:20:26.842Z,4.97
2018-01-03T00:20:30.647Z,4.86
2018-01-03T00:20:34.669Z,4.86
2018-01-03T00:20:38.575Z,4.84
2018-01-03T00:20:42.384Z,4.88
2018-01-03T00:20:46.182Z,4.87
2018-01-03T00:20:50.202Z,4.83
2018-01-03T00:20:54.177Z,4.84
2018-01-03T00:20:57.984Z,4.87
2018-01-03T00:21:01.992Z,4.86
2018-01-03T00:21:05.813Z,4.87
2018-01-03T00:21:09.948Z,4.91
2018-01-03T00:21:13.742Z,4.87
2018-01-03T00:21:17.542Z,4.91
2018-01-03T00:21:21.350Z,4.88
2018-01-03T00:21:25.565Z,4.86
2018-01-03T00:21:29.395Z,4.83
2018-01-03T00:21:33.419Z,4.9
2018-01-03T00:21:37.233Z,4.91
2018-01-03T00:21:41.371Z,4.87
2018-01-03T00:21:45.287Z,4.91
2018-01-03T00:21:49.189Z,4.86
2018-01-03T00:21:52.987Z,4.96
2018-01-03T00:21:56.896Z,4.9
2018-01-03T00:22:00.919Z,4.87
2018-01-03T00:22:04.963Z,4.86
2018-01-03T00:22:08.767Z,4.87
2018-01-03T00:22:12.769Z,4.91
2018-01-03T00:22:16.670Z,4.84
2018-01-03T00:22:20.680Z,4.84
2018-01-03T00:22:24.481Z,4.93
2018-01-03T00:22:28.594Z,4.86
2018-01-03T00:22:32.505Z,4.87
2018-01-03T00:22:36.567Z,4.94
2018-01-03T00:22:40.484Z,4.83
2018-01-03T00:22:44.294Z,4.88
2018-01-03T00:22:48.101Z,4.83
2018-01-03T00:22:52.128Z,4.87
2018-01-03T00:22:56.040Z,4.99
2018-01-03T00:22:59.732Z,4.93
2018-01-03T00:23:03.447Z,4.86
2018-01-03T00:23:07.153Z,4.88
2018-01-03T00:23:11.166Z,4.87
2018-01-03T00:23:15.169Z,4.86
2018-01-03T00:23:18.968Z,4.86
2018-01-03T00:23:22.770Z,4.86
2018-01-03T00:23:26.577Z,4.87
2018-01-03T00:23:30.386Z,4.86
2018-01-03T00:23:34.192Z,4.87
2018-01-03T00:23:38.107Z,4.87
2018-01-03T00:23:42.033Z,4.91
2018-01-03T00:23:45.830Z,4.93
2018-01-03T00:23:49.752Z,4.87
2018-01-03T00:23:53.770Z,4.93
2018-01-03T00:23:57.697Z,4.9
2018-01-03T00:24:01.605Z,4.87
2018-01-03T00:24:05.610Z,4.9
2018-01-03T00:24:09.410Z,4.9
2018-01-03T00:24:13.320Z,4.88
2018-01-03T00:24:17.130Z,4.86
2018-01-03T00:24:21.260Z,4.97
2018-01-03T00:24:25.171Z,4.96
2018-01-03T00:24:29.078Z,4.9
2018-01-03T00:24:32.876Z,4.9
2018-01-03T00:24:36.682Z,4.91
2018-01-03T00:24:40.592Z,4.97
2018-01-03T00:24:44.411Z,4.93
2018-01-03T00:24:48.331Z,4.87
2018-01-03T00:24:52.231Z,4.99
2018-01-03T00:24:56.132Z,4.97
2018-01-03T00:24:59.920Z,4.91
2018-01-03T00:25:03.953Z,4.93
2018-01-03T00:25:08.197Z,4.99
2018-01-03T00:25:12.123Z,4.96
2018-01-03T00:25:15.943Z,4.97
2018-01-03T00:25:19.853Z,4.88
2018-01-03T00:25:23.670Z,4.93
2018-01-03T00:25:27.599Z,4.97
2018-01-03T00:25:31.409Z,4.96
2018-01-03T00:25:35.228Z,5.02
2018-01-03T00:25:38.935Z,4.96
2018-01-03T00:25:42.947Z,4.94
2018-01-03T00:25:47.175Z,4.96
2018-01-03T00:25:51.187Z,5.05
2018-01-03T00:25:54.874Z,4.97
2018-01-03T00:25:58.694Z,4.96
2018-01-03T00:26:02.705Z,5.05
2018-01-03T00:26:06.730Z,4.93
2018-01-03T00:26:10.527Z,4.91
2018-01-03T00:26:14.541Z,5.06
2018-01-03T00:26:18.464Z,4.99
2018-01-03T00:26:22.377Z,4.96
2018-01-03T00:26:26.283Z,4.91
2018-01-03T00:26:30.317Z,4.96
2018-01-03T00:26:34.228Z,5.01
2018-01-03T00:26:38.247Z,5.05
2018-01-03T00:26:42.035Z,5.01
2018-01-03T00:26:46.041Z,4.97
2018-01-03T00:26:50.056Z,4.94
2018-01-03T00:26:54.182Z,5.01
2018-01-03T00:26:57.889Z,5.01
2018-01-03T00:27:01.767Z,4.97
2018-01-03T00:27:06.004Z,4.96
2018-01-03T00:27:10.003Z,4.96
2018-01-03T00:27:13.799Z,4.96
2018-01-03T00:27:17.908Z,5.02
2018-01-03T00:27:22.022Z,4.94
2018-01-03T00:27:25.950Z,4.94
2018-01-03T00:27:29.951Z,4.94
2018-01-03T00:27:33.962Z,4.97
2018-01-03T00:27:37.861Z,4.94
2018-01-03T00:27:41.562Z,5.02
2018-01-03T00:27:45.487Z,4.99
2018-01-03T00:27:49.420Z,5.02
2018-01-03T00:27:53.543Z,4.99
2018-01-03T00:27:57.459Z,4.97
2018-01-03T00:28:01.372Z,4.97
2018-01-03T00:28:05.294Z,4.99
2018-01-03T00:28:09.300Z,5.02
2018-01-03T00:28:13.413Z,4.97
2018-01-03T00:28:17.227Z,4.99
2018-01-03T00:28:21.136Z,4.99
2018-01-03T00:28:24.960Z,5.02
2018-01-03T00:28:28.756Z,4.93
2018-01-03T00:28:32.565Z,4.99
2018-01-03T00:28:36.386Z,4.96
2018-01-03T00:28:40.512Z,4.94
2018-01-03T00:28:44.464Z,4.99
2018-01-03T00:28:48.580Z,5.04
2018-01-03T00:28:52.382Z,4.97
2018-01-03T00:28:56.397Z,5.05
2018-01-03T00:29:00.327Z,4.99
2018-01-03T00:29:04.437Z,5.02
2018-01-03T00:29:08.567Z,5.04
2018-01-03T00:29:12.575Z,5.04
2018-01-03T00:29:16.598Z,5.01
2018-01-03T00:29:20.621Z,5.05
2018-01-03T00:29:24.639Z,5.06
2018-01-03T00:29:28.461Z,4.94
2018-01-03T00:29:32.377Z,5.05
2018-01-03T00:29:36.377Z,4.96
2018-01-03T00:29:40.188Z,5.06
2018-01-03T00:29:44.318Z,4.96
2018-01-03T00:29:48.121Z,4.97
2018-01-03T00:29:52.038Z,5.05
2018-01-03T00:29:56.164Z,5.01
2018-01-03T00:30:00.167Z,4.96
2018-01-03T00:30:04.233Z,4.99
2018-01-03T00:30:08.054Z,5.01
2018-01-03T00:30:11.972Z,4.97
2018-01-03T00:30:15.778Z,4.99
2018-01-03T00:30:19.806Z,5.05
2018-01-03T00:30:23.807Z,5.02
2018-01-03T00:30:27.603Z,5.02
2018-01-03T00:30:31.733Z,4.97
2018-01-03T00:30:35.417Z,5.06
2018-01-03T00:30:39.214Z,4.96
2018-01-03T00:30:43.115Z,4.93
2018-01-03T00:30:46.919Z,5.02
2018-01-03T00:30:50.941Z,5.05
2018-01-03T00:30:55.157Z,5.02
2018-01-03T00:30:58.977Z,4.91
2018-01-03T00:31:03.295Z,5.05
2018-01-03T00:31:07.315Z,5.01
2018-01-03T00:31:11.144Z,5.01
2018-01-03T00:31:15.053Z,5.04
2018-01-03T00:31:18.874Z,5.04
2018-01-03T00:31:22.786Z,5.01
2018-01-03T00:31:26.799Z,5.04
2018-01-03T00:31:30.706Z,4.93
2018-01-03T00:31:34.843Z,4.94
2018-01-03T00:31:38.754Z,4.99
2018-01-03T00:31:42.761Z,5.08
2018-01-03T00:31:46.667Z,5.05
2018-01-03T00:31:50.487Z,5.04
2018-01-03T00:31:54.412Z,5.04
2018-01-03T00:31:58.422Z,5.06
2018-01-03T00:32:02.528Z,5.05
2018-01-03T00:32:06.554Z,4.99
2018-01-03T00:32:10.268Z,4.97
2018-01-03T00:32:14.194Z,4.99
2018-01-03T00:32:18.006Z,4.93
2018-01-03T00:32:22.136Z,5.01
2018-01-03T00:32:25.927Z,5.05
2018-01-03T00:32:29.871Z,5.02
2018-01-03T00:32:33.560Z,4.96
2018-01-03T00:32:37.363Z,4.96
2018-01-03T00:32:41.258Z,4.99
2018-01-03T00:32:45.278Z,5.01
2018-01-03T00:32:49.427Z,5.04
2018-01-03T00:32:53.535Z,5.05
2018-01-03T00:32:57.457Z,5.02
2018-01-03T00:33:01.257Z,5.06
2018-01-03T00:33:05.213Z,4.94
2018-01-03T00:33:09.111Z,4.97
2018-01-03T00:33:13.028Z,5.04
2018-01-03T00:33:16.924Z,4.93
2018-01-03T00:33:20.935Z,5.01
2018-01-03T00:33:24.653Z,4.99
2018-01-03T00:33:28.776Z,5.05
2018-01-03T00:33:32.802Z,5.02
2018-01-03T00:33:36.928Z,5.01
2018-01-03T00:33:40.834Z,5.01
2018-01-03T00:33:44.520Z,4.99
2018-01-03T00:33:48.324Z,5.02
2018-01-03T00:33:52.136Z,5.04
2018-01-03T00:33:56.059Z,5.05
2018-01-03T00:34:00.073Z,5.05
2018-01-03T00:34:04.441Z,5.01
2018-01-03T00:34:08.347Z,5.06
2018-01-03T00:34:12.257Z,5.02
2018-01-03T00:34:15.980Z,4.99
2018-01-03T00:34:19.680Z,5.01
2018-01-03T00:34:23.693Z,4.99
2018-01-03T00:34:27.389Z,5.01
2018-01-03T00:34:31.402Z,5.02
2018-01-03T00:34:35.312Z,5.02
2018-01-03T00:34:39.214Z,5.06
2018-01-03T00:34:42.901Z,4.97
2018-01-03T00:34:46.820Z,5.02
2018-01-03T00:34:50.929Z,4.99
2018-01-03T00:34:54.852Z,4.94
2018-01-03T00:34:59.176Z,5.02
2018-01-03T00:35:03.295Z,5.02
2018-01-03T00:35:07.196Z,4.96
2018-01-03T00:35:11.225Z,5.05
2018-01-03T00:35:15.255Z,5.02
2018-01-03T00:35:19.060Z,5.01
2018-01-03T00:35:22.966Z,5.04
2018-01-03T00:35:26.878Z,5.01
2018-01-03T00:35:30.582Z,5.04
2018-01-03T00:35:34.291Z,5.06
2018-01-03T00:35:38.091Z,4.97
2018-01-03T00:35:42.010Z,5.02
2018-01-03T00:35:45.912Z,5.05
2018-01-03T00:35:50.088Z,5.04
2018-01-03T00:35:54.088Z,5.05
2018-01-03T00:35:58.223Z,4.96
2018-01-03T00:36:02.490Z,5.02
2018-01-03T00:36:06.499Z,5.01
2018-01-03T00:36:10.313Z,5.02
2018-01-03T00:36:14.324Z,5.08
2018-01-03T00:36:18.532Z,5.04
2018-01-03T00:36:22.544Z,4.96
2018-01-03T00:36:26.568Z,5.01
2018-01-03T00:36:30.571Z,5.01
2018-01-03T00:36:34.593Z,5.06
2018-01-03T00:36:38.403Z,5.04
2018-01-03T00:36:42.301Z,4.97
2018-01-03T00:36:46.302Z,5.04
2018-01-03T00:36:50.335Z,5.01
2018-01-03T00:36:54.145Z,4.94
2018-01-03T00:36:58.051Z,5.05
2018-01-03T00:37:01.868Z,5.01
2018-01-03T00:37:05.767Z,5.08
2018-01-03T00:37:09.679Z,5.01
2018-01-03T00:37:13.582Z,5.01
2018-01-03T00:37:17.392Z,4.97
2018-01-03T00:37:21.293Z,5.01
2018-01-03T00:37:25.316Z,5.02
2018-01-03T00:37:29.324Z,4.99
2018-01-03T00:37:33.334Z,5.05
2018-01-03T00:37:37.128Z,4.99
2018-01-03T00:37:40.811Z,5.05
2018-01-03T00:37:44.715Z,5.04
2018-01-03T00:37:48.632Z,5.01
2018-01-03T00:37:52.434Z,5.02
2018-01-03T00:37:56.355Z,4.99
2018-01-03T00:38:00.166Z,5.01
2018-01-03T00:38:04.300Z,5.11
2018-01-03T00:38:08.298Z,5.01
2018-01-03T00:38:12.313Z,5.01
2018-01-03T00:38:16.232Z,5.02
2018-01-03T00:38:20.027Z,5.04
2018-01-03T00:38:23.932Z,5.08
2018-01-03T00:38:27.853Z,5.04
2018-01-03T00:38:31.857Z,5.04
2018-01-03T00:38:35.557Z,5.01
2018-01-03T00:38:39.578Z,5.05
2018-01-03T00:38:43.380Z,5.01
2018-01-03T00:38:47.187Z,5.02
2018-01-03T00:38:50.997Z,5.01
2018-01-03T00:38:55.060Z,5.01
2018-01-03T00:38:58.970Z,5.02
2018-01-03T00:39:02.969Z,5.05
2018-01-03T00:39:06.768Z,5.01
2018-01-03T00:39:10.576Z,5.01
2018-01-03T00:39:14.485Z,5.01
2018-01-03T00:39:18.409Z,4.97
2018-01-03T00:39:22.209Z,5.01
2018-01-03T00:39:25.905Z,5.01
2018-01-03T00:39:29.807Z,5.01
2018-01-03T00:39:33.505Z,5.06
2018-01-03T00:39:37.311Z,5.02
2018-01-03T00:39:41.123Z,4.96
2018-01-03T00:39:44.940Z,5.01
2018-01-03T00:39:48.853Z,5.08
2018-01-03T00:39:52.665Z,5.04
2018-01-03T00:39:56.580Z,5.04
2018-01-03T00:40:00.384Z,5.02
2018-01-03T00:40:04.449Z,5.04
2018-01-03T00:40:08.551Z,4.99
2018-01-03T00:40:12.511Z,5.02
2018-01-03T00:40:16.640Z,5.02
2018-01-03T00:40:20.552Z,4.97
2018-01-03T00:40:24.470Z,5.01
2018-01-03T00:40:28.388Z,5.02
2018-01-03T00:40:32.422Z,5.01
2018-01-03T00:40:36.228Z,5.02
2018-01-03T00:40:40.158Z,5.02
2018-01-03T00:40:44.390Z,4.99
2018-01-03T00:40:48.416Z,5.04
2018-01-03T00:40:52.450Z,5.04
2018-01-03T00:40:56.460Z,5.06
2018-01-03T00:41:00.460Z,5.04
2018-01-03T00:41:04.373Z,5.04
2018-01-03T00:41:08.290Z,5.06
2018-01-03T00:41:12.205Z,5.04
2018-01-03T00:41:16.218Z,5.05
2018-01-03T00:41:20.014Z,5.08
2018-01-03T00:41:24.124Z,5.01
2018-01-03T00:41:28.016Z,5.01
2018-01-03T00:41:31.942Z,5.04
2018-01-03T00:41:35.851Z,5.04
2018-01-03T00:41:39.872Z,5.01
2018-01-03T00:41:43.676Z,5.02
2018-01-03T00:41:47.798Z,5.02
2018-01-03T00:41:51.706Z,4.97
2018-01-03T00:41:55.729Z,5.05
2018-01-03T00:41:59.529Z,5.02
2018-01-03T00:42:03.709Z,4.99
2018-01-03T00:42:07.836Z,5.01
2018-01-03T00:42:11.643Z,5.01
2018-01-03T00:42:15.875Z,5.06
2018-01-03T00:42:19.674Z,5.01
2018-01-03T00:42:23.473Z,5.01
2018-01-03T00:42:27.288Z,5.04
2018-01-03T00:42:31.412Z,4.97
2018-01-03T00:42:35.231Z,5.01
2018-01-03T00:42:39.137Z,5.01
2018-01-03T00:42:43.036Z,5.01
2018-01-03T00:42:46.840Z,4.99
2018-01-03T00:42:50.648Z,5.04
2018-01-03T00:42:54.537Z,5.01
2018-01-03T00:42:58.239Z,4.99
2018-01-03T00:43:02.258Z,5.01
2018-01-03T00:43:06.076Z,5.01
2018-01-03T00:43:09.875Z,5.02
2018-01-03T00:43:13.780Z,5.04
2018-01-03T00:43:17.577Z,4.97
2018-01-03T00:43:21.712Z,5.05
2018-01-03T00:43:25.887Z,5.02
2018-01-03T00:43:29.802Z,4.99
2018-01-03T00:43:33.911Z,5.08
2018-01-03T00:43:37.828Z,5.05
2018-01-03T00:43:41.735Z,5.08
2018-01-03T00:43:45.428Z,4.99
2018-01-03T00:43:49.336Z,5.04
2018-01-03T00:43:53.408Z,5.08
2018-01-03T00:43:57.415Z,5.04
2018-01-03T00:44:01.542Z,4.94
2018-01-03T00:44:05.760Z,4.99
2018-01-03T00:44:09.881Z,5.01
2018-01-03T00:44:13.703Z,5.02
2018-01-03T00:44:17.724Z,5.08
2018-01-03T00:44:21.533Z,5.08
2018-01-03T00:44:25.433Z,5.02
2018-01-03T00:44:29.338Z,5.08
2018-01-03T00:44:33.253Z,5.06
2018-01-03T00:44:37.067Z,4.97
2018-01-03T00:44:40.872Z,5.02
2018-01-03T00:44:44.665Z,5.01
2018-01-03T00:44:48.686Z,4.99
2018-01-03T00:44:52.718Z,5.08
2018-01-03T00:44:56.733Z,5.01
2018-01-03T00:45:00.533Z,5.01
2018-01-03T00:45:04.772Z,5.05
2018-01-03T00:45:08.909Z,5.06
2018-01-03T00:45:12.711Z,5.08
2018-01-03T00:45:16.415Z,5.01
2018-01-03T00:45:20.213Z,4.94
2018-01-03T00:45:23.926Z,5.05
2018-01-03T00:45:27.728Z,5.06
2018-01-03T00:45:31.643Z,5.04
2018-01-03T00:45:35.356Z,4.99
2018-01-03T00:45:39.058Z,5.02
2018-01-03T00:45:43.076Z,4.94
2018-01-03T00:45:46.792Z,5.08
2018-01-03T00:45:50.813Z,4.96
2018-01-03T00:45:54.734Z,5.04
2018-01-03T00:45:58.545Z,5.02
2018-01-03T00:46:02.387Z,5.04
2018-01-03T00:46:06.193Z,5.04
2018-01-03T00:46:09.988Z,5.04
2018-01-03T00:46:13.799Z,4.99
2018-01-03T00:46:17.705Z,4.96
2018-01-03T00:46:21.617Z,5.05
2018-01-03T00:46:25.632Z,5.06
2018-01-03T00:46:29.332Z,5.01
2018-01-03T00:46:33.146Z,4.93
2018-01-03T00:46:36.953Z,4.99
2018-01-03T00:46:40.861Z,5.01
2018-01-03T00:46:44.580Z,4.99
2018-01-03T00:46:48.604Z,5.05
2018-01-03T00:46:52.285Z,5.06
2018-01-03T00:46:56.094Z,4.99
2018-01-03T00:46:59.898Z,5.01
2018-01-03T00:47:03.888Z,5.09
2018-01-03T00:47:07.905Z,4.99
2018-01-03T00:47:11.957Z,4.93
2018-01-03T00:47:15.978Z,4.99
2018-01-03T00:47:19.782Z,4.94
2018-01-03T00:47:23.598Z,5.01
2018-01-03T00:47:27.509Z,4.99
2018-01-03T00:47:31.423Z,5.06
2018-01-03T00:47:35.357Z,4.96
2018-01-03T00:47:39.484Z,4.96
2018-01-03T00:47:43.398Z,4.97
2018-01-03T00:47:47.215Z,4.94
2018-01-03T00:47:51.023Z,4.97
2018-01-03T00:47:54.924Z,5.02
2018-01-03T00:47:58.963Z,4.96
2018-01-03T00:48:03.148Z,4.96
2018-01-03T00:48:07.265Z,5.01
2018-01-03T00:48:11.062Z,4.93
2018-01-03T00:48:15.074Z,4.99
2018-01-03T00:48:18.989Z,4.96
2018-01-03T00:48:22.680Z,5.06
2018-01-03T00:48:26.595Z,5.02
2018-01-03T00:48:30.389Z,5.01
2018-01-03T00:48:34.190Z,4.94
2018-01-03T00:48:38.207Z,5.04
2018-01-03T00:48:42.103Z,5.05
2018-01-03T00:48:45.906Z,5.05
2018-01-03T00:48:49.716Z,5.04
2018-01-03T00:48:53.737Z,5.04
2018-01-03T00:48:57.850Z,5.04
2018-01-03T00:49:01.972Z,5.04
2018-01-03T00:49:06.108Z,4.99
2018-01-03T00:49:10.022Z,4.97
2018-01-03T00:49:13.927Z,4.99
2018-01-03T00:49:17.737Z,5.01
2018-01-03T00:49:21.643Z,4.96
2018-01-03T00:49:25.455Z,5.01
2018-01-03T00:49:29.266Z,5.04
2018-01-03T00:49:33.158Z,4.99
2018-01-03T00:49:36.944Z,5.06
2018-01-03T00:49:40.871Z,5.06
2018-01-03T00:49:44.787Z,4.99
2018-01-03T00:49:48.829Z,5.05
2018-01-03T00:49:52.740Z,5.01
2018-01-03T00:49:56.657Z,5.05
2018-01-03T00:50:00.584Z,4.91
2018-01-03T00:50:04.421Z,5.01
2018-01-03T00:50:08.430Z,4.96
2018-01-03T00:50:12.446Z,4.99
2018-01-03T00:50:16.454Z,4.97
2018-01-03T00:50:20.363Z,5.02
2018-01-03T00:50:24.316Z,5.01
2018-01-03T00:50:28.017Z,5.06
2018-01-03T00:50:32.033Z,5.02
2018-01-03T00:50:35.833Z,5.05
2018-01-03T00:50:39.744Z,5.01
2018-01-03T00:50:43.451Z,5.05
2018-01-03T00:50:47.251Z,5.06
2018-01-03T00:50:51.273Z,5.08
2018-01-03T00:50:55.388Z,5.05
2018-01-03T00:50:59.088Z,5.02
2018-01-03T00:51:03.157Z,4.96
2018-01-03T00:51:07.179Z,5.08
2018-01-03T00:51:11.095Z,5.06
2018-01-03T00:51:15.122Z,5.01
2018-01-03T00:51:18.986Z,4.97
2018-01-03T00:51:22.791Z,4.96
2018-01-03T00:51:26.807Z,4.97
2018-01-03T00:51:30.810Z,5.11
2018-01-03T00:51:34.613Z,5.06
2018-01-03T00:51:38.319Z,5.01
2018-01-03T00:51:42.057Z,5.01
2018-01-03T00:51:46.181Z,5.01
2018-01-03T00:51:50.194Z,5.05
2018-01-03T00:51:54.093Z,5.01
2018-01-03T00:51:57.916Z,5.01
2018-01-03T00:52:01.611Z,5.05
2018-01-03T00:52:05.730Z,5.01
2018-01-03T00:52:09.545Z,5.02
2018-01-03T00:52:13.574Z,5.01
2018-01-03T00:52:17.505Z,5.04
2018-01-03T00:52:21.528Z,5.04